KHTS

Tri-State / Milton J Ferguson Field Airport

Huntington, West Virginia, USA
METAR KHTS 161851Z 22004KT 10SM BKN009 OVC013 02/00 A3023 RMK AO2 RAB23E35 CIG 008V012 SLP245 P0000 T00220000
Observed Flight Rules
Jan-16 @ 18:51 UTC (13 minutes ago) Instrument Flight Rules
Wind Visibility Clouds
220° at 4 knots 10 miles
  • Broken at 900' AGL
  • Overcast at 1,300' AGL
Temperatures Readings Precipitation
Current 2°C / 36°F
Dewpoint 0°C / 32°F
Humidity 87%
Altimeter 30.23" Hg
Pressure 1024.5 hPa
Elevation 254
Current Rain 0.01
METAR KHTS 161851Z 22004KT 10SM BKN009 OVC013 02/00 A3023 RMK AO2 RAB23E35 CIG 008V012 SLP245 P0000 T00220000
Observed Flight Rules
Jan-16 @ 18:51 UTC
(13 minutes ago)
IFR
Wind Visibility
220° at 4 knots 10 miles
Clouds
  • Broken at 900' AGL
  • Overcast at 1,300' AGL
Temperature Dewpoint
2°C / 36°F 0°C / 32°F
Humidity Altimeter Pressure
87% 30.23" Hg 1024.5 hPa
Current Rain
0.01